EDDV

Hannover Airport

Hannover, Germany
METAR EDDV 170550Z 29012KT 9999 BKN007 02/00 Q1017 NOSIG
Observed Flight Rules
Dec-17 @ 05:50 UTC (26 minutes ago) Instrument Flight Rules
Wind Visibility Clouds
290° at 12 knots 10,000+ meters
  • Broken at 700' AGL
Temperatures Readings
Current 2°C / 36°F
Dewpoint 0°C / 32°F
Humidity 87%
Altimeter 30.03" Hg
Pressure 1017 hPa
Elevation 54
METAR EDDV 170550Z 29012KT 9999 BKN007 02/00 Q1017 NOSIG
Observed Flight Rules
Dec-17 @ 05:50 UTC
(26 minutes ago)
IFR
Wind Visibility
290° at 12 knots 10,000+ meters
Clouds
  • Broken at 700' AGL
Temperature Dewpoint
2°C / 36°F 0°C / 32°F
Humidity Altimeter Pressure
87% 30.03" Hg 1017 hPa